Portada
METAR-TAF:

METAR-TAF

Aeroports :

Aeroport de València

València, Espanya

latitud: 39-30N, longitud: 000-28W, altitud: 69 m

Observació

L'informe es va fer fa 30 minuts, a les 05:00 UTC
Vent 6 kt del Oest/Nord-Oest
Temperatura 6°C
Humitat 81%
Pressió 1030 hPa
Visibilitat 10 km o més
sense núvols per sota de 1500 mi sense presència de cumulonimbus.

METAR: LEVC 180500Z 30006KT CAVOK 06/03 Q1030 NOSIG

Hora: 06:30 (05:30 UTC)

Pronòstic

L'informe es va fer fa 6 hores i 30 minuts, a les 23:00 UTC
Pronòstic vàlid del 18 a les 00 UTC al 18 a les 24 UTC
Vent 4 kt amb direcció variable
Visibilitat 10 km o més
Escasses núvols a una alçada de 4000 ft
Temporalment
l' 18 a les 12 UTC al 18 a les 18 UTC
Vent 12 kt del Oest/Sud-Oest

TAF: LEVC 172300Z 1800/1824 VRB04KT 9999 FEW040 TX16/1813Z TN05/1806Z TEMPO 1812/1818 25012KT

Observacions i pronòstics meteorològics de més de 4000 aeroports (METAR i TAF).

Les estacions disponibles són els punts grocs i vermells al mapa.

Posi el ratolí al punt desitjat per veure el nom de l'estació.

Feu clic per veure les observacions i els pronòstics meteorològics.

Per canviar el mapa: feu clic els botons verds amb una creu de color negre per apropar; al botó verd amb un guió per allunyar la imatge; o en les fletxes verdes per a mapes adjacents.


METAR-TAF: